Terminal Aerodrome Forecast
Issued by NWS Quad Cities IA IL

Home | Current Version | Previous Version | Graphics & Text | Print | Product List | Glossary On
Versions: 1 2 3 4 5 6 7 8 9 10 11 12 13 14 15 16 17 18 19 20 21 22
000
FTUS43 KDVN 310500 AAA
TAFMLI
TAF AMD
KMLI 310512Z 3105/3124 00000KT 3SM BR SKC
      TEMPO 3105/3109 1SM BR
     FM310900 VRB02KT 1SM BR SKC
      TEMPO 3109/3113 1/2SM FG SCT005
     FM311400 18007KT P6SM FEW050=

USA.gov is the U.S. government's official web portal to all federal, state and local government web resources and services.